Aviation Digital Data Service (ADDS)

Output produced by METARs form (0340 UTC 26 April 2019)
found at http://www.aviationweather.gov/metar/data/
 
METAR text: VTCH 260300Z 30003KT 2500 HZ NSC 32/16 Q1009
Conditions at: VTCH (MAE HONG SON/MUA, TH) observed 0300 UTC 26 April 2019
Temperature: 32.0°C (90°F)
Dewpoint: 16.0°C (61°F) [RH = 38%]
Pressure (altimeter): 29.79 inches Hg (1009.0 mb)
Winds: from the WNW (300 degrees) at 3 MPH (3 knots; 1.5 m/s)
Visibility: 1.55 miles (2.49 km)
Ceiling: at least 12,000 feet AGL
Clouds: sky clear below 12,000 feet AGL
Weather: HZ  (haze)

METAR text: VTCH 260200Z VRB02KT 2300 HZ NSC 29/16 Q1010
Conditions at: VTCH (MAE HONG SON/MUA, TH) observed 0200 UTC 26 April 2019
Temperature: 29.0°C (84°F)
Dewpoint: 16.0°C (61°F) [RH = 45%]
Pressure (altimeter): 29.82 inches Hg (1010.0 mb)
Winds: variable direction winds at 2 MPH (2 knots; 1.0 m/s)
Visibility: 1.43 miles (2.30 km)
Ceiling: at least 12,000 feet AGL
Clouds: sky clear below 12,000 feet AGL
Weather: HZ  (haze)

METAR text: VTCH 260100Z 00000KT 2300 HZ NSC 27/16 Q1010
Conditions at: VTCH (MAE HONG SON/MUA, TH) observed 0100 UTC 26 April 2019
Temperature: 27.0°C (81°F)
Dewpoint: 16.0°C (61°F) [RH = 51%]
Pressure (altimeter): 29.82 inches Hg (1010.0 mb)
Winds: calm
Visibility: 1.43 miles (2.30 km)
Ceiling: at least 12,000 feet AGL
Clouds: sky clear below 12,000 feet AGL
Weather: HZ  (haze)

METAR text: VTCH 260000Z 00000KT 2500 HZ NSC 25/17 Q1009
Conditions at: VTCH (MAE HONG SON/MUA, TH) observed 0000 UTC 26 April 2019
Temperature: 25.0°C (77°F)
Dewpoint: 17.0°C (63°F) [RH = 61%]
Pressure (altimeter): 29.79 inches Hg (1009.0 mb)
Winds: calm
Visibility: 1.55 miles (2.49 km)
Ceiling: at least 12,000 feet AGL
Clouds: sky clear below 12,000 feet AGL
Weather: HZ  (haze)

METAR text: VTCH 251200Z 19005KT 110V260 9999 FEW025 37/10 Q1004 NOSIG
Conditions at: VTCH (MAE HONG SON/MUA, TH) observed 1200 UTC 25 April 2019
Temperature: 37.0°C (99°F)
Dewpoint: 10.0°C (50°F) [RH = 20%]
Pressure (altimeter): 29.65 inches Hg (1004.0 mb)
Winds: from the S (190 degrees) at 6 MPH (5 knots; 2.6 m/s)
Visibility: 6 or more miles (10+ km)
Ceiling: at least 12,000 feet AGL
Clouds: few clouds at 2500 feet AGL
Weather: no significant weather observed at this time

METAR text: VTCH 251100Z VRB06KT 9999 FEW020TCU 38/10 Q1003 NOSIG
Conditions at: VTCH (MAE HONG SON/MUA, TH) observed 1100 UTC 25 April 2019
Temperature: 38.0°C (100°F)
Dewpoint: 10.0°C (50°F) [RH = 19%]
Pressure (altimeter): 29.62 inches Hg (1003.0 mb)
Winds: variable direction winds at 7 MPH (6 knots; 3.1 m/s)
Visibility: 6 or more miles (10+ km)
Ceiling: at least 12,000 feet AGL
Clouds: few clouds at 2000 feet AGL
Weather: no significant weather observed at this time

METAR text: VTCH 251000Z VRB06KT 9999 SCT025TCU 39/08 Q1003 NOSIG
Conditions at: VTCH (MAE HONG SON/MUA, TH) observed 1000 UTC 25 April 2019
Temperature: 39.0°C (102°F)
Dewpoint: 8.0°C (46°F) [RH = 15%]
Pressure (altimeter): 29.62 inches Hg (1003.0 mb)
Winds: variable direction winds at 7 MPH (6 knots; 3.1 m/s)
Visibility: 6 or more miles (10+ km)
Ceiling: at least 12,000 feet AGL
Clouds: scattered clouds at 2500 feet AGL
Weather: no significant weather observed at this time

METAR text: VTCH 250900Z 19004KT 110V260 9999 SCT025 41/10 Q1004 NOSIG
Conditions at: VTCH (MAE HONG SON/MUA, TH) observed 0900 UTC 25 April 2019
Temperature: 41.0°C (106°F)
Dewpoint: 10.0°C (50°F) [RH = 16%]
Pressure (altimeter): 29.65 inches Hg (1004.0 mb)
Winds: from the S (190 degrees) at 5 MPH (4 knots; 2.1 m/s)
Visibility: 6 or more miles (10+ km)
Ceiling: at least 12,000 feet AGL
Clouds: scattered clouds at 2500 feet AGL
Weather: no significant weather observed at this time

METAR text: VTCH 250800Z 16007KT 9999 SCT025 40/11 Q1005 NOSIG
Conditions at: VTCH (MAE HONG SON/MUA, TH) observed 0800 UTC 25 April 2019
Temperature: 40.0°C (104°F)
Dewpoint: 11.0°C (52°F) [RH = 18%]
Pressure (altimeter): 29.68 inches Hg (1005.0 mb)
Winds: from the SSE (160 degrees) at 8 MPH (7 knots; 3.6 m/s)
Visibility: 6 or more miles (10+ km)
Ceiling: at least 12,000 feet AGL
Clouds: scattered clouds at 2500 feet AGL
Weather: no significant weather observed at this time

METAR text: VTCH 250700Z 13004KT 070V230 9000 FEW020TCU 40/11 Q1006 NOSIG
Conditions at: VTCH (MAE HONG SON/MUA, TH) observed 0700 UTC 25 April 2019
Temperature: 40.0°C (104°F)
Dewpoint: 11.0°C (52°F) [RH = 18%]
Pressure (altimeter): 29.70 inches Hg (1006.0 mb)
Winds: from the SE (130 degrees) at 5 MPH (4 knots; 2.1 m/s)
Visibility: 6 miles ( 9 km)
Ceiling: at least 12,000 feet AGL
Clouds: few clouds at 2000 feet AGL
Weather: no significant weather observed at this time

METAR text: VTCH 250600Z VRB02KT 8000 FEW020TCU 39/15 Q1008 NOSIG
Conditions at: VTCH (MAE HONG SON/MUA, TH) observed 0600 UTC 25 April 2019
Temperature: 39.0°C (102°F)
Dewpoint: 15.0°C (59°F) [RH = 24%]
Pressure (altimeter): 29.76 inches Hg (1008.0 mb)
Winds: variable direction winds at 2 MPH (2 knots; 1.0 m/s)
Visibility: 5 miles ( 8 km)
Ceiling: at least 12,000 feet AGL
Clouds: few clouds at 2000 feet AGL
Weather: no significant weather observed at this time

METAR text: VTCH 250500Z VRB02KT 7000 FEW025 38/16 Q1009 NOSIG
Conditions at: VTCH (MAE HONG SON/MUA, TH) observed 0500 UTC 25 April 2019
Temperature: 38.0°C (100°F)
Dewpoint: 16.0°C (61°F) [RH = 27%]
Pressure (altimeter): 29.79 inches Hg (1009.0 mb)
Winds: variable direction winds at 2 MPH (2 knots; 1.0 m/s)
Visibility: 4 miles ( 7 km)
Ceiling: at least 12,000 feet AGL
Clouds: few clouds at 2500 feet AGL
Weather: no significant weather observed at this time

METAR text: VTCH 250400Z VRB02KT 3500 HZ NSC 35/17 Q1010 BECMG TL0500 5000 HZ
Conditions at: VTCH (MAE HONG SON/MUA, TH) observed 0400 UTC 25 April 2019
Temperature: 35.0°C (95°F)
Dewpoint: 17.0°C (63°F) [RH = 34%]
Pressure (altimeter): 29.82 inches Hg (1010.0 mb)
Winds: variable direction winds at 2 MPH (2 knots; 1.0 m/s)
Visibility: 2.17 miles (3.49 km)
Ceiling: at least 12,000 feet AGL
Clouds: sky clear below 12,000 feet AGL
Weather: HZ  (haze)

METAR text: VTCH 250300Z VRB02KT 2200 HZ NSC 33/19 Q1011 BECMG 3000 HZ
Conditions at: VTCH (MAE HONG SON/MUA, TH) observed 0300 UTC 25 April 2019
Temperature: 33.0°C (91°F)
Dewpoint: 19.0°C (66°F) [RH = 44%]
Pressure (altimeter): 29.85 inches Hg (1011.0 mb)
Winds: variable direction winds at 2 MPH (2 knots; 1.0 m/s)
Visibility: 1.37 miles (2.20 km)
Ceiling: at least 12,000 feet AGL
Clouds: sky clear below 12,000 feet AGL
Weather: HZ  (haze)

METAR text: VTCH 250200Z 00000KT 2000 HZ NSC 31/18 Q1011 NOSIG
Conditions at: VTCH (MAE HONG SON/MUA, TH) observed 0200 UTC 25 April 2019
Temperature: 31.0°C (88°F)
Dewpoint: 18.0°C (64°F) [RH = 46%]
Pressure (altimeter): 29.85 inches Hg (1011.0 mb)
Winds: calm
Visibility: 1.24 miles (2.00 km)
Ceiling: at least 12,000 feet AGL
Clouds: sky clear below 12,000 feet AGL
Weather: HZ  (haze)

METAR text: VTCH 250100Z 00000KT 1800 HZ NSC 27/18 Q1011 NOSIG
Conditions at: VTCH (MAE HONG SON/MUA, TH) observed 0100 UTC 25 April 2019
Temperature: 27.0°C (81°F)
Dewpoint: 18.0°C (64°F) [RH = 58%]
Pressure (altimeter): 29.85 inches Hg (1011.0 mb)
Winds: calm
Visibility: 1.12 miles (1.80 km)
Ceiling: at least 12,000 feet AGL
Clouds: sky clear below 12,000 feet AGL
Weather: HZ  (haze)

METAR text: VTCH 250000Z 26003KT 2000 HZ NSC 26/18 Q1010 BECMG 3000 HZ
Conditions at: VTCH (MAE HONG SON/MUA, TH) observed 0000 UTC 25 April 2019
Temperature: 26.0°C (79°F)
Dewpoint: 18.0°C (64°F) [RH = 61%]
Pressure (altimeter): 29.82 inches Hg (1010.0 mb)
Winds: from the W (260 degrees) at 3 MPH (3 knots; 1.5 m/s)
Visibility: 1.24 miles (2.00 km)
Ceiling: at least 12,000 feet AGL
Clouds: sky clear below 12,000 feet AGL
Weather: HZ  (haze)

Forecast for: VTCH (MAE HONG SON/MUA, TH)
Text: TAF VTCH 252300Z 2600/2624 20005KT 4000 HZ FEW030
Forecast period: 0000 to 0100 UTC 26 April 2019
Forecast type: FROM: standard forecast or significant change
Winds: from the SSW (200 degrees) at 6 MPH (5 knots; 2.6 m/s)
Visibility: 2.49 miles (4.01 km)
Ceiling: at least 12,000 feet AGL
Clouds: few clouds at 3000 feet AGL
Weather: HZ  (haze)
Text: BECMG 2601/2603 9999 NSW
Forecast period: 0100 UTC 26 April 2019 to 0000 UTC 27 April 2019
Forecast type: BECOMING: Conditions expected to become as follows by 0300 UTC 26 April 2019
Winds: from the SSW (200 degrees) at 6 MPH (5 knots; 2.6 m/s)
Visibility: 6 or more miles 10+ km)
Ceiling: at least 12,000 feet AGL
Clouds: few clouds at 3000 feet AGL
Weather: NSW  (no significant weather)
Text: TEMPO 2606/2612 VRB15G25KT 5000 TSRA FEW020CB BKN030
Forecast period: 0600 to 1200 UTC 26 April 2019
Forecast type: TEMPORARY: The following changes expected for less than half the time period
Winds: variable direction winds at 17 MPH (15 knots; 7.7 m/s)
gusting to 29 MPH (25 knots; 12.9 m/s)
Visibility: 3 miles (5 km)
Ceiling: 3000 feet AGL
Clouds: few clouds at 2000 feet AGL
broken clouds at 3000 feet AGL
Weather: TSRA  (rain associated with thunderstorm(s))